createdAt,value
2018-07-26T00:01:54.186Z,22.54
2018-07-26T00:04:22.676Z,22.54
2018-07-26T00:06:51.421Z,22.52
2018-07-26T00:09:20.374Z,22.50
2018-07-26T00:11:49.027Z,22.48
2018-07-26T00:14:17.872Z,22.46
2018-07-26T00:16:46.920Z,22.42
2018-07-26T00:19:16.288Z,22.40
2018-07-26T00:21:44.955Z,22.43
2018-07-26T00:24:13.588Z,22.43
2018-07-26T00:26:42.313Z,22.45
2018-07-26T00:29:11.230Z,22.44
2018-07-26T00:31:39.658Z,22.41
2018-07-26T00:34:08.377Z,22.41
2018-07-26T00:36:37.138Z,22.40
2018-07-26T00:39:09.000Z,22.39
2018-07-26T00:41:37.936Z,22.38
2018-07-26T00:44:07.181Z,22.35
2018-07-26T00:46:35.671Z,22.33
2018-07-26T00:49:04.445Z,22.31
2018-07-26T00:51:33.598Z,22.29
2018-07-26T00:54:02.927Z,22.28
2018-07-26T00:56:31.377Z,22.27
2018-07-26T00:59:00.097Z,22.24
2018-07-26T01:01:28.796Z,22.22
2018-07-26T01:03:57.476Z,22.22
2018-07-26T01:06:25.933Z,22.21
2018-07-26T01:08:54.585Z,22.21
2018-07-26T01:11:23.237Z,22.19
2018-07-26T01:13:51.908Z,22.16
2018-07-26T01:16:20.775Z,22.16
2018-07-26T01:18:49.237Z,22.17
2018-07-26T01:21:18.285Z,22.16
2018-07-26T01:23:46.735Z,22.14
2018-07-26T01:26:15.196Z,22.12
2018-07-26T01:28:44.492Z,22.12
2018-07-26T01:31:13.313Z,22.14
2018-07-26T01:33:42.192Z,22.14
2018-07-26T01:36:11.001Z,22.14
2018-07-26T01:38:39.465Z,22.13
2018-07-26T01:41:08.047Z,22.11
2018-07-26T01:43:51.150Z,22.07
2018-07-26T01:46:21.170Z,22.06
2018-07-26T01:48:50.045Z,22.02
2018-07-26T01:51:18.985Z,21.99
2018-07-26T01:53:47.580Z,22.00
2018-07-26T01:56:16.455Z,22.00
2018-07-26T01:58:45.325Z,21.97
2018-07-26T02:01:14.470Z,21.98
2018-07-26T02:03:42.932Z,21.97
2018-07-26T02:06:11.784Z,21.96
2018-07-26T02:08:40.502Z,21.94
2018-07-26T02:11:08.958Z,21.94
2018-07-26T02:13:38.065Z,21.93
2018-07-26T02:16:07.045Z,21.93
2018-07-26T02:18:36.161Z,21.93
2018-07-26T02:21:05.108Z,21.90
2018-07-26T02:23:33.617Z,21.89
2018-07-26T02:26:02.538Z,21.88
2018-07-26T02:28:31.536Z,21.89
2018-07-26T02:31:00.039Z,21.89
2018-07-26T02:33:28.917Z,21.85
2018-07-26T02:35:58.355Z,21.86
2018-07-26T02:38:26.914Z,21.86
2018-07-26T02:40:55.870Z,21.88
2018-07-26T02:43:24.726Z,21.88
2018-07-26T02:45:53.229Z,21.88
2018-07-26T02:48:22.038Z,21.87
2018-07-26T02:50:51.109Z,21.86
2018-07-26T02:53:19.996Z,21.87
2018-07-26T02:55:48.465Z,21.86
2018-07-26T02:58:17.157Z,21.87
2018-07-26T03:00:45.648Z,21.89
2018-07-26T03:03:14.212Z,21.90
2018-07-26T03:05:43.308Z,21.87
2018-07-26T03:08:12.022Z,21.86
2018-07-26T03:10:40.698Z,21.84
2018-07-26T03:13:09.572Z,21.81
2018-07-26T03:15:38.070Z,21.07
2018-07-26T03:18:06.866Z,21.85
2018-07-26T03:20:35.601Z,21.84
2018-07-26T03:23:04.056Z,21.87
2018-07-26T03:25:32.657Z,21.91
2018-07-26T03:28:01.682Z,21.91
2018-07-26T03:30:30.193Z,21.90
2018-07-26T03:32:58.649Z,21.86
2018-07-26T03:35:27.533Z,21.90
2018-07-26T03:37:56.395Z,21.91
2018-07-26T03:40:24.833Z,21.90
2018-07-26T03:42:54.128Z,21.91
2018-07-26T03:45:22.687Z,21.93
2018-07-26T03:47:51.102Z,21.96
2018-07-26T03:50:20.089Z,22.01
2018-07-26T03:52:49.022Z,22.04
2018-07-26T03:55:17.429Z,22.03
2018-07-26T03:57:46.558Z,22.05
2018-07-26T04:00:15.313Z,22.08
2018-07-26T04:02:44.048Z,22.11
2018-07-26T04:05:12.870Z,22.13
2018-07-26T04:07:41.313Z,22.17
2018-07-26T04:10:09.836Z,22.20
2018-07-26T04:12:38.921Z,22.23
2018-07-26T04:15:08.079Z,22.26
2018-07-26T04:17:37.037Z,22.31
2018-07-26T04:20:05.937Z,22.37
2018-07-26T04:22:34.530Z,22.43
2018-07-26T04:25:02.961Z,22.47
2018-07-26T04:27:31.864Z,22.52
2018-07-26T04:30:00.299Z,22.55
2018-07-26T04:32:29.157Z,22.58
2018-07-26T04:34:58.013Z,22.63
2018-07-26T04:37:26.533Z,22.67
2018-07-26T04:39:55.209Z,22.73
2018-07-26T04:42:23.781Z,22.65
2018-07-26T04:44:52.257Z,22.84
2018-07-26T04:47:20.967Z,22.88
2018-07-26T04:49:50.481Z,22.92
2018-07-26T04:52:19.378Z,22.98
2018-07-26T04:54:50.619Z,23.03
2018-07-26T04:57:20.453Z,23.09
2018-07-26T04:59:48.936Z,23.13
2018-07-26T05:02:17.385Z,23.19
2018-07-26T05:04:46.345Z,23.26
2018-07-26T05:07:15.027Z,23.33
2018-07-26T05:09:43.853Z,23.38
2018-07-26T05:12:12.613Z,23.42
2018-07-26T05:14:41.418Z,23.46
2018-07-26T05:17:10.113Z,23.51
2018-07-26T05:19:39.018Z,23.54
2018-07-26T05:22:07.777Z,23.58
2018-07-26T05:24:36.457Z,23.62
2018-07-26T05:27:05.858Z,23.68
2018-07-26T05:29:34.337Z,23.70
2018-07-26T05:32:03.141Z,23.72
2018-07-26T05:34:32.014Z,23.77
2018-07-26T05:37:00.513Z,23.82
2018-07-26T05:39:29.422Z,23.86
2018-07-26T05:41:59.294Z,23.92
2018-07-26T05:44:27.793Z,23.97
2018-07-26T05:46:56.849Z,24.01
2018-07-26T05:49:26.076Z,24.04
2018-07-26T05:51:54.529Z,24.09
2018-07-26T05:54:23.271Z,24.14
2018-07-26T05:56:52.039Z,24.21
2018-07-26T05:59:20.915Z,24.30
2018-07-26T06:01:50.310Z,24.33
2018-07-26T06:04:19.097Z,24.39
2018-07-26T06:06:47.617Z,24.44
2018-07-26T06:09:16.101Z,24.49
2018-07-26T06:11:44.765Z,24.54
2018-07-26T06:14:13.593Z,24.55
2018-07-26T06:16:42.655Z,24.61
2018-07-26T06:19:11.744Z,24.68
2018-07-26T06:21:40.229Z,24.72
2018-07-26T06:24:08.965Z,24.80
2018-07-26T06:26:37.771Z,24.88
2018-07-26T06:29:06.273Z,24.97
2018-07-26T06:31:35.297Z,25.06
2018-07-26T06:34:04.106Z,25.08
2018-07-26T06:36:32.605Z,25.08
2018-07-26T06:39:01.129Z,25.08
2018-07-26T06:41:30.317Z,25.11
2018-07-26T06:43:59.190Z,25.21
2018-07-26T06:46:27.701Z,25.28
2018-07-26T06:48:57.581Z,25.36
2018-07-26T06:51:26.289Z,25.43
2018-07-26T06:53:54.753Z,25.47
2018-07-26T06:56:24.152Z,25.60
2018-07-26T06:58:53.014Z,25.72
2018-07-26T07:01:21.878Z,25.80
2018-07-26T07:03:51.025Z,25.93
2018-07-26T07:06:19.606Z,25.95
2018-07-26T07:08:48.305Z,26.04
2018-07-26T07:11:16.880Z,26.17
2018-07-26T07:13:45.610Z,26.32
2018-07-26T07:16:14.193Z,26.44
2018-07-26T07:18:43.062Z,26.59
2018-07-26T07:21:11.569Z,26.77
2018-07-26T07:23:40.409Z,26.99
2018-07-26T07:26:09.195Z,26.98
2018-07-26T07:28:37.600Z,27.13
2018-07-26T07:31:06.071Z,27.38
2018-07-26T07:33:35.147Z,27.61
2018-07-26T07:36:03.895Z,27.96
2018-07-26T07:38:32.347Z,28.58
2018-07-26T07:41:01.234Z,29.29
2018-07-26T07:43:29.913Z,29.70
2018-07-26T07:45:58.485Z,29.87
2018-07-26T07:48:28.002Z,29.22
2018-07-26T07:50:56.617Z,30.54
2018-07-26T07:53:25.062Z,30.94
2018-07-26T07:55:53.634Z,31.41
2018-07-26T07:58:22.765Z,32.00
2018-07-26T08:00:51.617Z,32.67
2018-07-26T08:03:21.472Z,32.86
2018-07-26T08:05:49.929Z,32.85
2018-07-26T08:08:18.683Z,32.49
2018-07-26T08:10:47.153Z,32.72
2018-07-26T08:13:15.697Z,32.58
2018-07-26T08:15:44.373Z,32.34
2018-07-26T08:18:13.269Z,32.39
2018-07-26T08:20:41.757Z,32.60
2018-07-26T08:23:10.226Z,32.56
2018-07-26T08:25:38.986Z,33.24
2018-07-26T08:28:07.453Z,33.58
2018-07-26T08:30:36.165Z,33.55
2018-07-26T08:33:05.135Z,33.54
2018-07-26T08:35:33.598Z,33.73
2018-07-26T08:38:02.045Z,34.21
2018-07-26T08:40:30.942Z,34.33
2018-07-26T08:42:59.425Z,34.48
2018-07-26T08:45:27.914Z,34.38
2018-07-26T08:47:56.660Z,34.81
2018-07-26T08:50:25.213Z,34.57
2018-07-26T08:52:54.018Z,33.76
2018-07-26T08:55:23.019Z,33.70
2018-07-26T08:57:51.653Z,34.33
2018-07-26T09:00:20.437Z,34.51
2018-07-26T09:02:49.397Z,34.72
2018-07-26T09:05:18.018Z,34.90
2018-07-26T09:07:46.565Z,35.37
2018-07-26T09:10:16.432Z,35.77
2018-07-26T09:12:44.989Z,35.85
2018-07-26T09:15:13.456Z,35.74
2018-07-26T09:17:43.853Z,35.90
2018-07-26T09:20:12.729Z,36.20
2018-07-26T09:22:41.282Z,35.96
2018-07-26T09:25:09.853Z,36.07
2018-07-26T09:27:38.299Z,36.52
2018-07-26T09:30:08.505Z,36.89
2018-07-26T09:32:37.037Z,37.24
2018-07-26T09:35:05.571Z,36.40
2018-07-26T09:37:34.129Z,35.96
2018-07-26T09:40:02.709Z,36.18
2018-07-26T09:42:31.400Z,36.52
2018-07-26T09:44:59.841Z,37.21
2018-07-26T09:47:28.459Z,37.54
2018-07-26T09:49:56.927Z,38.06
2018-07-26T09:52:25.499Z,37.22
2018-07-26T09:54:54.084Z,37.25
2018-07-26T09:57:22.672Z,37.48
2018-07-26T09:59:51.572Z,37.30
2018-07-26T10:02:21.081Z,37.47
2018-07-26T10:04:49.821Z,37.60
2018-07-26T10:07:18.329Z,37.34
2018-07-26T10:09:47.733Z,37.53
2018-07-26T10:12:16.198Z,37.71
2018-07-26T10:14:44.637Z,37.56
2018-07-26T10:17:13.294Z,37.78
2018-07-26T10:19:41.845Z,38.31
2018-07-26T10:22:10.595Z,38.13
2018-07-26T10:24:39.593Z,37.59
2018-07-26T10:27:08.117Z,36.56
2018-07-26T10:29:36.606Z,35.95
2018-07-26T10:32:05.645Z,35.74
2018-07-26T10:34:34.792Z,36.16
2018-07-26T10:37:03.277Z,37.15
2018-07-26T10:39:32.004Z,36.76
2018-07-26T10:42:00.465Z,36.11
2018-07-26T10:44:28.969Z,35.85
2018-07-26T10:46:58.068Z,35.36
2018-07-26T10:49:26.560Z,35.34
2018-07-26T10:51:55.670Z,35.65
2018-07-26T10:54:24.405Z,36.05
2018-07-26T10:56:52.829Z,36.62
2018-07-26T10:59:21.344Z,35.82
2018-07-26T11:01:50.458Z,35.83
2018-07-26T11:04:19.077Z,36.63
2018-07-26T11:06:47.533Z,36.95
2018-07-26T11:09:16.633Z,35.64
2018-07-26T11:11:45.129Z,35.94
2018-07-26T11:14:13.661Z,35.76
2018-07-26T11:16:42.310Z,35.19
2018-07-26T11:19:10.746Z,35.08
2018-07-26T11:21:39.241Z,34.93
2018-07-26T11:24:08.212Z,35.27
2018-07-26T11:26:36.765Z,35.08
2018-07-26T11:29:05.241Z,35.13
2018-07-26T11:31:34.069Z,35.26
2018-07-26T11:34:03.076Z,35.16
2018-07-26T11:36:31.553Z,35.42
2018-07-26T11:39:00.428Z,35.56
2018-07-26T11:41:29.359Z,35.73
2018-07-26T11:43:57.783Z,35.19
2018-07-26T11:46:26.417Z,34.54
2018-07-26T11:48:55.381Z,34.59
2018-07-26T11:51:23.825Z,35.01
2018-07-26T11:53:52.653Z,35.03
2018-07-26T11:56:21.096Z,35.51
2018-07-26T11:58:49.695Z,35.99
2018-07-26T12:01:18.279Z,36.43
2018-07-26T12:03:46.721Z,36.14
2018-07-26T12:06:15.426Z,35.77
2018-07-26T12:08:43.886Z,36.28
2018-07-26T12:11:12.562Z,36.72
2018-07-26T12:13:40.989Z,37.01
2018-07-26T12:16:09.932Z,37.12
2018-07-26T12:18:38.368Z,37.28
2018-07-26T12:21:06.848Z,37.40
2018-07-26T12:23:35.485Z,37.95
2018-07-26T12:26:04.066Z,38.19
2018-07-26T12:28:32.487Z,38.26
2018-07-26T12:31:01.597Z,38.67
2018-07-26T12:33:30.054Z,37.46
2018-07-26T12:35:58.561Z,36.58
2018-07-26T12:38:27.034Z,37.19
2018-07-26T12:40:55.492Z,37.79
2018-07-26T12:43:23.990Z,38.23
2018-07-26T12:45:52.646Z,38.83
2018-07-26T12:48:21.237Z,39.38
2018-07-26T12:50:49.709Z,39.48
2018-07-26T12:53:18.533Z,39.02
2018-07-26T12:55:47.042Z,37.88
2018-07-26T12:58:15.473Z,37.43
2018-07-26T13:00:43.941Z,38.09
2018-07-26T13:03:12.386Z,37.82
2018-07-26T13:05:41.294Z,37.54
2018-07-26T13:08:10.272Z,37.57
2018-07-26T13:10:38.695Z,37.15
2018-07-26T13:13:07.167Z,36.60
2018-07-26T13:15:36.106Z,36.41
2018-07-26T13:18:04.598Z,35.37
2018-07-26T13:20:33.099Z,36.90
2018-07-26T13:23:01.730Z,37.02
2018-07-26T13:25:30.355Z,37.51
2018-07-26T13:27:58.813Z,37.81
2018-07-26T13:30:27.337Z,37.56
2018-07-26T13:32:55.778Z,37.32
2018-07-26T13:35:24.334Z,37.18
2018-07-26T13:37:53.097Z,36.89
2018-07-26T13:40:21.953Z,36.49
2018-07-26T13:42:50.353Z,37.40
2018-07-26T13:45:19.235Z,38.15
2018-07-26T13:47:47.663Z,38.09
2018-07-26T13:50:16.064Z,39.15
2018-07-26T13:52:44.634Z,39.56
2018-07-26T13:55:13.049Z,38.53
2018-07-26T13:57:41.492Z,39.17
2018-07-26T14:00:11.558Z,39.94
2018-07-26T14:02:40.014Z,39.47
2018-07-26T14:05:08.477Z,38.39
2018-07-26T14:07:37.038Z,38.51
2018-07-26T14:10:07.403Z,38.08
2018-07-26T14:12:36.745Z,38.81
2018-07-26T14:15:06.497Z,39.70
2018-07-26T14:17:35.058Z,40.48
2018-07-26T14:20:03.572Z,40.27
2018-07-26T14:22:32.509Z,39.90
2018-07-26T14:25:01.218Z,40.11
2018-07-26T14:27:30.310Z,40.58
2018-07-26T14:29:59.181Z,40.89
2018-07-26T14:32:27.911Z,40.78
2018-07-26T14:34:56.637Z,40.59
2018-07-26T14:37:25.362Z,39.56
2018-07-26T14:39:53.891Z,38.25
2018-07-26T14:42:22.485Z,38.63
2018-07-26T14:44:50.986Z,38.25
2018-07-26T14:47:19.709Z,38.91
2018-07-26T14:49:48.185Z,39.63
2018-07-26T14:52:16.662Z,39.99
2018-07-26T14:54:45.102Z,40.81
2018-07-26T14:57:13.573Z,41.35
2018-07-26T14:59:42.012Z,40.79
2018-07-26T15:02:10.595Z,39.58
2018-07-26T15:04:39.173Z,39.90
2018-07-26T15:07:07.650Z,39.50
2018-07-26T15:09:36.133Z,39.36
2018-07-26T15:12:04.763Z,38.95
2018-07-26T15:14:33.363Z,39.04
2018-07-26T15:17:01.814Z,40.09
2018-07-26T15:19:30.321Z,40.29
2018-07-26T15:21:59.283Z,40.03
2018-07-26T15:24:28.790Z,39.82
2018-07-26T15:26:57.364Z,39.26
2018-07-26T15:29:26.469Z,38.83
2018-07-26T15:31:54.889Z,38.26
2018-07-26T15:34:23.361Z,37.72
2018-07-26T15:36:52.043Z,38.00
2018-07-26T15:39:21.034Z,38.51
2018-07-26T15:41:49.617Z,38.68
2018-07-26T15:44:18.165Z,38.70
2018-07-26T15:46:53.265Z,37.77
2018-07-26T15:49:21.924Z,38.16
2018-07-26T15:51:50.381Z,39.07
2018-07-26T15:54:18.847Z,38.21
2018-07-26T15:56:47.505Z,38.12
2018-07-26T15:59:15.954Z,38.68
2018-07-26T16:01:44.511Z,38.28
2018-07-26T16:04:12.999Z,38.52
2018-07-26T16:06:41.489Z,39.14
2018-07-26T16:09:11.099Z,39.52
2018-07-26T16:11:39.753Z,39.96
2018-07-26T16:14:09.427Z,40.26
2018-07-26T16:16:37.952Z,40.27
2018-07-26T16:19:06.614Z,39.74
2018-07-26T16:21:35.533Z,39.37
2018-07-26T16:24:04.456Z,39.36
2018-07-26T16:26:33.121Z,39.44
2018-07-26T16:29:01.738Z,39.69
2018-07-26T16:31:30.710Z,39.82
2018-07-26T16:33:59.215Z,39.56
2018-07-26T16:36:27.645Z,39.28
2018-07-26T16:38:56.541Z,39.41
2018-07-26T16:41:25.008Z,39.27
2018-07-26T16:43:53.457Z,39.28
2018-07-26T16:46:22.001Z,39.16
2018-07-26T16:48:50.797Z,39.08
2018-07-26T16:51:19.310Z,38.95
2018-07-26T16:53:47.828Z,38.88
2018-07-26T16:56:16.442Z,38.76
2018-07-26T16:58:44.888Z,38.56
2018-07-26T17:01:13.694Z,38.03
2018-07-26T17:03:42.589Z,37.83
2018-07-26T17:06:11.037Z,37.78
2018-07-26T17:08:39.527Z,37.61
2018-07-26T17:11:08.570Z,37.00
2018-07-26T17:13:37.129Z,36.43
2018-07-26T17:16:05.931Z,35.87
2018-07-26T17:18:34.634Z,35.15
2018-07-26T17:21:03.158Z,34.55
2018-07-26T17:23:31.687Z,34.14
2018-07-26T17:26:00.190Z,34.00
2018-07-26T17:28:28.661Z,33.76
2018-07-26T17:30:57.205Z,33.36
2018-07-26T17:33:25.997Z,33.04
2018-07-26T17:35:54.698Z,32.80
2018-07-26T17:38:26.018Z,32.42
2018-07-26T17:40:54.774Z,32.24
2018-07-26T17:43:25.114Z,32.11
2018-07-26T17:45:53.586Z,32.03
2018-07-26T17:48:22.341Z,31.91
2018-07-26T17:50:50.821Z,31.81
2018-07-26T17:53:19.906Z,31.63
2018-07-26T17:55:48.382Z,31.50
2018-07-26T17:58:17.007Z,31.44
2018-07-26T18:00:45.681Z,31.25
2018-07-26T18:03:14.140Z,31.16
2018-07-26T18:05:42.613Z,31.10
2018-07-26T18:08:11.177Z,31.00
2018-07-26T18:10:40.525Z,30.86
2018-07-26T18:15:36.524Z,30.52
2018-07-26T18:18:05.166Z,30.38
2018-07-26T18:20:33.799Z,30.30
2018-07-26T18:23:02.257Z,30.28
2018-07-26T18:25:31.038Z,30.23
2018-07-26T18:27:59.553Z,30.16
2018-07-26T18:30:29.213Z,30.07
2018-07-26T18:32:57.661Z,29.96
2018-07-26T18:35:26.289Z,29.85
2018-07-26T18:37:54.797Z,29.81
2018-07-26T18:40:23.253Z,29.72
2018-07-26T18:42:51.905Z,29.63
2018-07-26T18:45:20.788Z,29.58
2018-07-26T18:47:49.236Z,29.48
2018-07-26T18:50:17.993Z,29.34
2018-07-26T18:52:46.577Z,29.29
2018-07-26T18:55:15.026Z,29.25
2018-07-26T18:57:43.690Z,29.18
2018-07-26T19:00:13.635Z,29.14
2018-07-26T19:02:42.421Z,29.03
2018-07-26T19:05:11.007Z,28.97
2018-07-26T19:07:39.475Z,28.93
2018-07-26T19:10:09.909Z,28.89
2018-07-26T19:12:39.185Z,28.86
2018-07-26T19:15:12.058Z,28.80
2018-07-26T19:17:41.789Z,28.69
2018-07-26T19:20:11.717Z,28.65
2018-07-26T19:22:40.646Z,28.61
2018-07-26T19:25:10.014Z,28.56
2018-07-26T19:27:38.805Z,28.50
2018-07-26T19:30:09.658Z,28.42
2018-07-26T19:32:39.825Z,28.36
2018-07-26T19:35:08.310Z,28.33
2018-07-26T19:37:36.829Z,28.30
2018-07-26T19:40:07.238Z,28.27
2018-07-26T19:42:36.361Z,28.21
2018-07-26T19:45:06.057Z,28.14
2018-07-26T19:47:34.513Z,28.07
2018-07-26T19:50:03.715Z,28.01
2018-07-26T19:52:32.194Z,27.94
2018-07-26T19:55:00.642Z,27.88
2018-07-26T19:57:29.341Z,27.79
2018-07-26T19:59:58.225Z,27.69
2018-07-26T20:02:27.445Z,27.63
2018-07-26T20:04:56.215Z,27.55
2018-07-26T20:07:25.074Z,27.45
2018-07-26T20:09:53.716Z,27.33
2018-07-26T20:12:22.243Z,27.26
2018-07-26T20:14:50.957Z,27.15
2018-07-26T20:17:19.580Z,27.07
2018-07-26T20:19:48.090Z,26.99
2018-07-26T20:22:16.753Z,26.88
2018-07-26T20:24:45.500Z,26.77
2018-07-26T20:27:13.954Z,26.70
2018-07-26T20:29:42.533Z,26.62
2018-07-26T20:32:11.197Z,26.56
2018-07-26T20:34:39.813Z,26.48
2018-07-26T20:37:08.958Z,26.42
2018-07-26T20:39:37.482Z,26.36
2018-07-26T20:42:06.648Z,26.17
2018-07-26T20:44:35.104Z,26.27
2018-07-26T20:47:03.583Z,26.21
2018-07-26T20:49:32.023Z,26.15
2018-07-26T20:52:00.567Z,26.06
2018-07-26T20:54:29.181Z,26.02
2018-07-26T20:56:57.689Z,26.06
2018-07-26T20:59:27.009Z,26.01
2018-07-26T21:01:55.494Z,25.95
2018-07-26T21:04:24.158Z,25.88
2018-07-26T21:06:53.131Z,25.92
2018-07-26T21:09:21.609Z,25.92
2018-07-26T21:11:50.206Z,25.84
2018-07-26T21:14:18.659Z,25.82
2018-07-26T21:16:47.614Z,25.83
2018-07-26T21:19:16.694Z,25.79
2018-07-26T21:21:45.482Z,25.76
2018-07-26T21:24:14.431Z,25.72
2018-07-26T21:26:42.857Z,25.66
2018-07-26T21:29:11.350Z,25.66
2018-07-26T21:31:39.859Z,25.70
2018-07-26T21:34:09.517Z,25.73
2018-07-26T21:36:38.001Z,25.72
2018-07-26T21:39:09.049Z,25.67
2018-07-26T21:41:37.559Z,25.68
2018-07-26T21:44:06.765Z,25.66
2018-07-26T21:46:35.517Z,25.61
2018-07-26T21:49:04.182Z,25.55
2018-07-26T21:51:32.898Z,25.52
2018-07-26T21:54:01.812Z,25.54
2018-07-26T21:56:30.349Z,25.59
2018-07-26T21:58:59.081Z,25.48
2018-07-26T22:01:28.038Z,25.38
2018-07-26T22:03:56.658Z,25.34
2018-07-26T22:06:25.187Z,25.30
2018-07-26T22:08:53.713Z,25.31
2018-07-26T22:11:22.273Z,25.34
2018-07-26T22:13:50.707Z,25.34
2018-07-26T22:16:19.367Z,25.31
2018-07-26T22:18:47.939Z,25.27
2018-07-26T22:21:16.907Z,25.24
2018-07-26T22:23:45.469Z,25.18
2018-07-26T22:26:13.947Z,25.17
2018-07-26T22:28:42.433Z,25.08
2018-07-26T22:31:11.051Z,25.01
2018-07-26T22:33:39.546Z,24.99
2018-07-26T22:36:08.758Z,25.00
2018-07-26T22:38:37.993Z,25.01
2018-07-26T22:41:06.523Z,25.04
2018-07-26T22:43:35.430Z,25.05
2018-07-26T22:46:03.924Z,25.06
2018-07-26T22:48:32.397Z,25.06
2018-07-26T22:51:01.237Z,25.05
2018-07-26T22:53:30.065Z,25.03
2018-07-26T22:55:59.929Z,24.98
2018-07-26T22:58:28.541Z,24.97
2018-07-26T23:00:58.321Z,24.85
2018-07-26T23:03:27.064Z,24.71
2018-07-26T23:05:55.606Z,24.64
2018-07-26T23:08:24.266Z,24.65
2018-07-26T23:10:52.774Z,24.67
2018-07-26T23:13:21.630Z,24.69
2018-07-26T23:15:50.308Z,24.70
2018-07-26T23:18:18.830Z,24.69
2018-07-26T23:20:47.359Z,24.68
2018-07-26T23:23:16.177Z,24.66
2018-07-26T23:25:44.756Z,24.64
2018-07-26T23:28:13.217Z,24.60
2018-07-26T23:30:41.889Z,24.55
2018-07-26T23:33:11.342Z,24.51
2018-07-26T23:35:39.974Z,24.48
2018-07-26T23:38:08.445Z,24.43
2018-07-26T23:40:36.920Z,24.38
2018-07-26T23:43:05.793Z,24.33
2018-07-26T23:45:34.233Z,24.27
2018-07-26T23:48:03.581Z,24.22
2018-07-26T23:50:32.379Z,24.24
2018-07-26T23:53:00.821Z,24.26
2018-07-26T23:55:29.310Z,24.24
2018-07-26T23:57:58.142Z,24.15
